sensor_id;sensor_type;location;lat;lon;timestamp;P1;durP1;ratioP1;P2;durP2;ratioP2
47401;SDS011;33155;48.370;-3.750;2022-08-03T06:01:40;0.03;;;0.03;;
47401;SDS011;33155;48.370;-3.750;2022-08-03T06:04:05;0.00;;;0.00;;
47401;SDS011;33155;48.370;-3.750;2022-08-03T06:06:31;0.00;;;0.00;;
47401;SDS011;33155;48.370;-3.750;2022-08-03T06:08:56;0.00;;;0.00;;
47401;SDS011;33155;48.370;-3.750;2022-08-03T06:11:22;0.00;;;0.00;;
47401;SDS011;33155;48.370;-3.750;2022-08-03T06:13:48;0.10;;;0.10;;
47401;SDS011;33155;48.370;-3.750;2022-08-03T06:16:14;0.00;;;0.00;;
47401;SDS011;33155;48.370;-3.750;2022-08-03T06:18:39;1.55;;;0.10;;
47401;SDS011;33155;48.370;-3.750;2022-08-03T06:21:05;0.00;;;0.00;;
47401;SDS011;33155;48.370;-3.750;2022-08-03T06:23:30;0.00;;;0.00;;
47401;SDS011;33155;48.370;-3.750;2022-08-03T06:25:56;0.00;;;0.00;;
47401;SDS011;33155;48.370;-3.750;2022-08-03T06:28:21;0.00;;;0.00;;
47401;SDS011;33155;48.370;-3.750;2022-08-03T06:30:47;0.00;;;0.00;;
47401;SDS011;33155;48.370;-3.750;2022-08-03T06:33:12;0.00;;;0.00;;
47401;SDS011;33155;48.370;-3.750;2022-08-03T06:35:38;0.08;;;0.08;;
47401;SDS011;33155;48.370;-3.750;2022-08-03T06:38:03;0.10;;;0.10;;
47401;SDS011;33155;48.370;-3.750;2022-08-03T06:40:29;0.00;;;0.00;;
47401;SDS011;33155;48.370;-3.750;2022-08-03T06:42:58;0.00;;;0.00;;
47401;SDS011;33155;48.370;-3.750;2022-08-03T06:45:25;0.10;;;0.00;;
47401;SDS011;33155;48.370;-3.750;2022-08-03T06:48:00;0.00;;;0.00;;
47401;SDS011;33155;48.370;-3.750;2022-08-03T06:50:26;0.00;;;0.00;;
47401;SDS011;33155;48.370;-3.750;2022-08-03T06:52:51;0.00;;;0.00;;
47401;SDS011;33155;48.370;-3.750;2022-08-03T06:55:17;0.00;;;0.00;;
47401;SDS011;33155;48.370;-3.750;2022-08-03T06:57:43;0.00;;;0.00;;
47401;SDS011;33155;48.370;-3.750;2022-08-03T07:00:08;0.00;;;0.00;;
47401;SDS011;33155;48.370;-3.750;2022-08-03T07:02:35;0.00;;;0.00;;
47401;SDS011;33155;48.370;-3.750;2022-08-03T07:05:01;0.03;;;0.03;;
47401;SDS011;33155;48.370;-3.750;2022-08-03T07:07:26;0.10;;;0.10;;
47401;SDS011;33155;48.370;-3.750;2022-08-03T07:09:52;0.10;;;0.10;;
47401;SDS011;33155;48.370;-3.750;2022-08-03T07:12:17;0.10;;;0.10;;
47401;SDS011;33155;48.370;-3.750;2022-08-03T07:14:43;0.00;;;0.00;;
47401;SDS011;33155;48.370;-3.750;2022-08-03T07:17:08;0.00;;;0.00;;
47401;SDS011;33155;48.370;-3.750;2022-08-03T07:19:34;0.00;;;0.00;;
47401;SDS011;33155;48.370;-3.750;2022-08-03T07:21:59;0.00;;;0.00;;
47401;SDS011;33155;48.370;-3.750;2022-08-03T07:24:25;0.00;;;0.00;;
47401;SDS011;33155;48.370;-3.750;2022-08-03T07:26:50;0.00;;;0.00;;
47401;SDS011;33155;48.370;-3.750;2022-08-03T07:29:16;0.13;;;0.10;;
47401;SDS011;33155;48.370;-3.750;2022-08-03T07:31:41;0.00;;;0.00;;
47401;SDS011;33155;48.370;-3.750;2022-08-03T07:34:07;0.00;;;0.00;;
47401;SDS011;33155;48.370;-3.750;2022-08-03T07:36:32;0.30;;;0.10;;
47401;SDS011;33155;48.370;-3.750;2022-08-03T07:38:58;0.20;;;0.20;;
47401;SDS011;33155;48.370;-3.750;2022-08-03T07:41:23;0.00;;;0.00;;
47401;SDS011;33155;48.370;-3.750;2022-08-03T07:43:49;0.10;;;0.10;;
47401;SDS011;33155;48.370;-3.750;2022-08-03T07:46:14;0.40;;;0.10;;
47401;SDS011;33155;48.370;-3.750;2022-08-03T07:48:40;0.10;;;0.10;;
47401;SDS011;33155;48.370;-3.750;2022-08-03T07:51:05;0.17;;;0.10;;
47401;SDS011;33155;48.370;-3.750;2022-08-03T07:53:31;0.10;;;0.10;;
47401;SDS011;33155;48.370;-3.750;2022-08-03T07:55:56;0.10;;;0.10;;
47401;SDS011;33155;48.370;-3.750;2022-08-03T07:58:22;0.98;;;0.20;;
47401;SDS011;33155;48.370;-3.750;2022-08-03T08:00:48;0.30;;;0.20;;
47401;SDS011;33155;48.370;-3.750;2022-08-03T08:03:15;0.55;;;0.40;;
47401;SDS011;33155;48.370;-3.750;2022-08-03T08:05:40;0.95;;;0.30;;
47401;SDS011;33155;48.370;-3.750;2022-08-03T08:08:06;0.30;;;0.30;;
47401;SDS011;33155;48.370;-3.750;2022-08-03T08:10:32;0.25;;;0.25;;
47401;SDS011;33155;48.370;-3.750;2022-08-03T08:12:58;0.75;;;0.35;;
47401;SDS011;33155;48.370;-3.750;2022-08-03T08:15:24;0.50;;;0.40;;
47401;SDS011;33155;48.370;-3.750;2022-08-03T08:17:50;0.20;;;0.20;;
47401;SDS011;33155;48.370;-3.750;2022-08-03T08:20:19;0.22;;;0.22;;
47401;SDS011;33155;48.370;-3.750;2022-08-03T08:22:45;0.40;;;0.40;;
47401;SDS011;33155;48.370;-3.750;2022-08-03T08:25:11;0.80;;;0.70;;
47401;SDS011;33155;48.370;-3.750;2022-08-03T08:27:42;0.63;;;0.60;;
47401;SDS011;33155;48.370;-3.750;2022-08-03T08:30:09;1.08;;;0.60;;
47401;SDS011;33155;48.370;-3.750;2022-08-03T08:32:35;0.98;;;0.65;;
47401;SDS011;33155;48.370;-3.750;2022-08-03T08:35:01;0.68;;;0.43;;
47401;SDS011;33155;48.370;-3.750;2022-08-03T08:37:30;0.60;;;0.60;;
47401;SDS011;33155;48.370;-3.750;2022-08-03T08:39:56;0.73;;;0.40;;
47401;SDS011;33155;48.370;-3.750;2022-08-03T08:42:22;0.30;;;0.30;;
47401;SDS011;33155;48.370;-3.750;2022-08-03T08:44:48;0.40;;;0.38;;
47401;SDS011;33155;48.370;-3.750;2022-08-03T08:47:13;1.25;;;0.73;;
47401;SDS011;33155;48.370;-3.750;2022-08-03T08:49:40;1.00;;;0.40;;
47401;SDS011;33155;48.370;-3.750;2022-08-03T08:52:08;1.13;;;0.60;;
47401;SDS011;33155;48.370;-3.750;2022-08-03T08:54:35;0.80;;;0.40;;
47401;SDS011;33155;48.370;-3.750;2022-08-03T08:57:03;0.63;;;0.45;;
47401;SDS011;33155;48.370;-3.750;2022-08-03T08:59:33;0.70;;;0.50;;
47401;SDS011;33155;48.370;-3.750;2022-08-03T09:01:59;0.55;;;0.50;;
47401;SDS011;33155;48.370;-3.750;2022-08-03T09:04:24;0.40;;;0.40;;
47401;SDS011;33155;48.370;-3.750;2022-08-03T09:06:51;0.50;;;0.43;;
47401;SDS011;33155;48.370;-3.750;2022-08-03T09:09:17;1.35;;;0.52;;
47401;SDS011;33155;48.370;-3.750;2022-08-03T09:11:42;0.70;;;0.60;;
47401;SDS011;33155;48.370;-3.750;2022-08-03T09:14:09;0.52;;;0.52;;
47401;SDS011;33155;48.370;-3.750;2022-08-03T09:16:35;0.50;;;0.50;;
47401;SDS011;33155;48.370;-3.750;2022-08-03T09:19:18;1.25;;;0.70;;
47401;SDS011;33155;48.370;-3.750;2022-08-03T09:21:44;0.85;;;0.70;;
47401;SDS011;33155;48.370;-3.750;2022-08-03T09:24:09;0.55;;;0.43;;
47401;SDS011;33155;48.370;-3.750;2022-08-03T09:26:35;0.63;;;0.60;;
47401;SDS011;33155;48.370;-3.750;2022-08-03T09:29:03;0.70;;;0.60;;
47401;SDS011;33155;48.370;-3.750;2022-08-03T09:31:34;0.70;;;0.65;;
47401;SDS011;33155;48.370;-3.750;2022-08-03T09:34:04;1.08;;;0.63;;
47401;SDS011;33155;48.370;-3.750;2022-08-03T09:36:35;1.98;;;0.90;;
47401;SDS011;33155;48.370;-3.750;2022-08-03T09:39:25;0.55;;;0.52;;
47401;SDS011;33155;48.370;-3.750;2022-08-03T09:42:11;0.70;;;0.70;;
47401;SDS011;33155;48.370;-3.750;2022-08-03T09:44:38;1.25;;;0.80;;
47401;SDS011;33155;48.370;-3.750;2022-08-03T09:47:34;0.63;;;0.60;;
47401;SDS011;33155;48.370;-3.750;2022-08-03T09:50:05;0.57;;;0.52;;
47401;SDS011;33155;48.370;-3.750;2022-08-03T09:52:36;0.77;;;0.60;;
47401;SDS011;33155;48.370;-3.750;2022-08-03T09:55:07;1.25;;;0.60;;
47401;SDS011;33155;48.370;-3.750;2022-08-03T09:57:37;1.03;;;0.80;;
47401;SDS011;33155;48.370;-3.750;2022-08-03T10:00:08;1.38;;;0.70;;
47401;SDS011;33155;48.370;-3.750;2022-08-03T10:02:36;1.33;;;1.02;;
47401;SDS011;33155;48.370;-3.750;2022-08-03T10:05:02;0.93;;;0.70;;
47401;SDS011;33155;48.370;-3.750;2022-08-03T10:07:28;1.42;;;0.60;;
47401;SDS011;33155;48.370;-3.750;2022-08-03T10:09:55;0.95;;;0.70;;
47401;SDS011;33155;48.370;-3.750;2022-08-03T10:12:22;0.60;;;0.60;;
47401;SDS011;33155;48.370;-3.750;2022-08-03T10:14:48;0.70;;;0.70;;
47401;SDS011;33155;48.370;-3.750;2022-08-03T10:17:14;0.88;;;0.68;;
47401;SDS011;33155;48.370;-3.750;2022-08-03T10:19:40;2.33;;;0.90;;
47401;SDS011;33155;48.370;-3.750;2022-08-03T10:22:09;0.57;;;0.40;;
47401;SDS011;33155;48.370;-3.750;2022-08-03T10:24:38;1.10;;;0.68;;
47401;SDS011;33155;48.370;-3.750;2022-08-03T10:27:06;0.50;;;0.47;;
47401;SDS011;33155;48.370;-3.750;2022-08-03T10:29:54;0.70;;;0.70;;
47401;SDS011;33155;48.370;-3.750;2022-08-03T10:35:04;2.60;;;1.00;;
47401;SDS011;33155;48.370;-3.750;2022-08-03T10:37:33;1.45;;;0.85;;
47401;SDS011;33155;48.370;-3.750;2022-08-03T10:40:02;1.42;;;0.60;;
47401;SDS011;33155;48.370;-3.750;2022-08-03T10:42:28;1.48;;;1.05;;
47401;SDS011;33155;48.370;-3.750;2022-08-03T10:45:05;1.02;;;0.80;;
47401;SDS011;33155;48.370;-3.750;2022-08-03T10:47:33;1.00;;;0.80;;
47401;SDS011;33155;48.370;-3.750;2022-08-03T10:49:58;0.82;;;0.65;;
47401;SDS011;33155;48.370;-3.750;2022-08-03T10:52:24;0.60;;;0.60;;
47401;SDS011;33155;48.370;-3.750;2022-08-03T10:54:50;2.00;;;0.88;;
47401;SDS011;33155;48.370;-3.750;2022-08-03T10:57:52;1.08;;;0.63;;
47401;SDS011;33155;48.370;-3.750;2022-08-03T11:00:22;2.90;;;0.73;;
47401;SDS011;33155;48.370;-3.750;2022-08-03T11:05:44;0.70;;;0.50;;
47401;SDS011;33155;48.370;-3.750;2022-08-03T11:08:30;1.15;;;0.75;;
47401;SDS011;33155;48.370;-3.750;2022-08-03T11:11:02;1.65;;;0.82;;
47401;SDS011;33155;48.370;-3.750;2022-08-03T11:16:33;1.33;;;0.63;;
47401;SDS011;33155;48.370;-3.750;2022-08-03T11:19:01;1.77;;;1.00;;
47401;SDS011;33155;48.370;-3.750;2022-08-03T11:35:16;2.33;;;0.80;;
47401;SDS011;33155;48.370;-3.750;2022-08-03T11:45:57;3.30;;;1.10;;
47401;SDS011;33155;48.370;-3.750;2022-08-03T11:48:39;2.17;;;0.73;;
47401;SDS011;33155;48.370;-3.750;2022-08-03T11:51:20;1.75;;;0.95;;
47401;SDS011;33155;48.370;-3.750;2022-08-03T11:53:57;3.22;;;1.30;;
47401;SDS011;33155;48.370;-3.750;2022-08-03T11:56:25;2.45;;;0.85;;
47401;SDS011;33155;48.370;-3.750;2022-08-03T11:58:52;4.05;;;1.83;;
47401;SDS011;33155;48.370;-3.750;2022-08-03T12:01:19;7.00;;;2.22;;
47401;SDS011;33155;48.370;-3.750;2022-08-03T12:03:45;2.28;;;1.30;;
47401;SDS011;33155;48.370;-3.750;2022-08-03T12:06:12;2.22;;;1.27;;
47401;SDS011;33155;48.370;-3.750;2022-08-03T12:08:40;3.65;;;1.25;;
47401;SDS011;33155;48.370;-3.750;2022-08-03T12:11:07;1.75;;;0.80;;
47401;SDS011;33155;48.370;-3.750;2022-08-03T12:13:44;3.17;;;1.20;;
47401;SDS011;33155;48.370;-3.750;2022-08-03T12:16:18;3.00;;;1.23;;
47401;SDS011;33155;48.370;-3.750;2022-08-03T12:18:45;1.95;;;1.17;;
47401;SDS011;33155;48.370;-3.750;2022-08-03T12:21:18;2.13;;;1.00;;
47401;SDS011;33155;48.370;-3.750;2022-08-03T12:23:48;2.45;;;0.95;;
47401;SDS011;33155;48.370;-3.750;2022-08-03T12:26:13;1.83;;;1.40;;
47401;SDS011;33155;48.370;-3.750;2022-08-03T12:28:40;2.53;;;1.38;;
47401;SDS011;33155;48.370;-3.750;2022-08-03T12:31:12;2.53;;;1.00;;
47401;SDS011;33155;48.370;-3.750;2022-08-03T12:36:22;1.58;;;0.82;;
47401;SDS011;33155;48.370;-3.750;2022-08-03T12:38:56;1.83;;;1.13;;
47401;SDS011;33155;48.370;-3.750;2022-08-03T12:41:30;1.13;;;0.70;;
47401;SDS011;33155;48.370;-3.750;2022-08-03T12:43:57;2.30;;;1.25;;
47401;SDS011;33155;48.370;-3.750;2022-08-03T12:46:27;3.25;;;1.48;;
47401;SDS011;33155;48.370;-3.750;2022-08-03T12:51:24;2.40;;;1.10;;
47401;SDS011;33155;48.370;-3.750;2022-08-03T12:53:52;4.30;;;1.23;;
47401;SDS011;33155;48.370;-3.750;2022-08-03T12:56:18;2.25;;;1.00;;
47401;SDS011;33155;48.370;-3.750;2022-08-03T12:58:44;1.17;;;0.82;;
47401;SDS011;33155;48.370;-3.750;2022-08-03T13:01:12;1.77;;;0.80;;
47401;SDS011;33155;48.370;-3.750;2022-08-03T13:03:45;2.55;;;0.77;;
47401;SDS011;33155;48.370;-3.750;2022-08-03T13:06:30;1.83;;;0.60;;
47401;SDS011;33155;48.370;-3.750;2022-08-03T13:09:05;3.78;;;0.88;;
47401;SDS011;33155;48.370;-3.750;2022-08-03T13:11:31;2.13;;;0.75;;
47401;SDS011;33155;48.370;-3.750;2022-08-03T13:13:57;1.35;;;0.70;;
47401;SDS011;33155;48.370;-3.750;2022-08-03T13:16:23;1.58;;;0.98;;
47401;SDS011;33155;48.370;-3.750;2022-08-03T13:18:49;4.25;;;1.08;;
47401;SDS011;33155;48.370;-3.750;2022-08-03T13:21:18;4.70;;;1.25;;
47401;SDS011;33155;48.370;-3.750;2022-08-03T13:23:46;3.65;;;1.05;;
47401;SDS011;33155;48.370;-3.750;2022-08-03T13:26:12;4.60;;;1.52;;
47401;SDS011;33155;48.370;-3.750;2022-08-03T13:28:37;3.05;;;1.00;;
47401;SDS011;33155;48.370;-3.750;2022-08-03T13:31:04;1.52;;;1.00;;
47401;SDS011;33155;48.370;-3.750;2022-08-03T13:33:30;2.80;;;1.20;;
47401;SDS011;33155;48.370;-3.750;2022-08-03T13:35:55;2.70;;;1.23;;
47401;SDS011;33155;48.370;-3.750;2022-08-03T13:38:21;2.38;;;1.00;;
47401;SDS011;33155;48.370;-3.750;2022-08-03T13:40:47;5.05;;;1.63;;
47401;SDS011;33155;48.370;-3.750;2022-08-03T13:43:12;6.70;;;1.63;;
47401;SDS011;33155;48.370;-3.750;2022-08-03T13:45:38;2.53;;;1.30;;
47401;SDS011;33155;48.370;-3.750;2022-08-03T13:48:04;1.45;;;0.80;;
47401;SDS011;33155;48.370;-3.750;2022-08-03T13:50:29;1.58;;;0.70;;
47401;SDS011;33155;48.370;-3.750;2022-08-03T13:52:58;3.55;;;0.80;;
47401;SDS011;33155;48.370;-3.750;2022-08-03T13:55:23;1.52;;;0.90;;
47401;SDS011;33155;48.370;-3.750;2022-08-03T13:57:49;5.78;;;2.55;;
47401;SDS011;33155;48.370;-3.750;2022-08-03T14:00:15;1.40;;;0.90;;
47401;SDS011;33155;48.370;-3.750;2022-08-03T14:02:42;1.58;;;0.70;;
47401;SDS011;33155;48.370;-3.750;2022-08-03T14:05:08;1.38;;;0.80;;
47401;SDS011;33155;48.370;-3.750;2022-08-03T14:07:33;1.65;;;1.05;;
47401;SDS011;33155;48.370;-3.750;2022-08-03T14:09:59;2.40;;;0.65;;
47401;SDS011;33155;48.370;-3.750;2022-08-03T14:12:25;0.90;;;0.70;;
47401;SDS011;33155;48.370;-3.750;2022-08-03T14:14:51;2.20;;;1.10;;
47401;SDS011;33155;48.370;-3.750;2022-08-03T14:17:17;0.95;;;0.60;;
47401;SDS011;33155;48.370;-3.750;2022-08-03T14:19:42;2.10;;;0.95;;
47401;SDS011;33155;48.370;-3.750;2022-08-03T14:22:08;3.42;;;1.42;;
47401;SDS011;33155;48.370;-3.750;2022-08-03T14:24:33;3.60;;;0.93;;
47401;SDS011;33155;48.370;-3.750;2022-08-03T14:26:59;1.85;;;1.02;;
47401;SDS011;33155;48.370;-3.750;2022-08-03T14:29:24;1.67;;;0.80;;
47401;SDS011;33155;48.370;-3.750;2022-08-03T14:31:49;1.52;;;0.95;;
47401;SDS011;33155;48.370;-3.750;2022-08-03T14:34:15;3.92;;;1.67;;
47401;SDS011;33155;48.370;-3.750;2022-08-03T14:36:40;1.75;;;0.80;;
47401;SDS011;33155;48.370;-3.750;2022-08-03T14:39:06;2.15;;;1.10;;
47401;SDS011;33155;48.370;-3.750;2022-08-03T14:41:32;3.22;;;1.02;;
47401;SDS011;33155;48.370;-3.750;2022-08-03T14:43:57;1.60;;;1.13;;
47401;SDS011;33155;48.370;-3.750;2022-08-03T14:46:23;1.27;;;0.80;;
47401;SDS011;33155;48.370;-3.750;2022-08-03T14:48:48;5.88;;;1.80;;
47401;SDS011;33155;48.370;-3.750;2022-08-03T14:51:14;4.82;;;1.00;;
47401;SDS011;33155;48.370;-3.750;2022-08-03T14:53:39;0.68;;;0.50;;
47401;SDS011;33155;48.370;-3.750;2022-08-03T14:56:05;2.35;;;0.85;;
47401;SDS011;33155;48.370;-3.750;2022-08-03T14:58:31;4.47;;;0.95;;
47401;SDS011;33155;48.370;-3.750;2022-08-03T15:00:56;3.08;;;1.10;;
47401;SDS011;33155;48.370;-3.750;2022-08-03T15:03:22;1.75;;;1.27;;
47401;SDS011;33155;48.370;-3.750;2022-08-03T15:05:51;1.00;;;0.60;;
47401;SDS011;33155;48.370;-3.750;2022-08-03T15:08:19;0.80;;;0.55;;
47401;SDS011;33155;48.370;-3.750;2022-08-03T15:10:45;1.15;;;0.65;;
47401;SDS011;33155;48.370;-3.750;2022-08-03T15:13:12;0.38;;;0.38;;
47401;SDS011;33155;48.370;-3.750;2022-08-03T15:15:37;0.90;;;0.50;;
47401;SDS011;33155;48.370;-3.750;2022-08-03T15:18:03;0.60;;;0.47;;
47401;SDS011;33155;48.370;-3.750;2022-08-03T15:20:28;0.63;;;0.55;;
47401;SDS011;33155;48.370;-3.750;2022-08-03T15:22:54;0.60;;;0.50;;
47401;SDS011;33155;48.370;-3.750;2022-08-03T15:25:19;1.08;;;0.45;;
47401;SDS011;33155;48.370;-3.750;2022-08-03T15:27:45;1.23;;;0.50;;
47401;SDS011;33155;48.370;-3.750;2022-08-03T15:30:10;2.33;;;0.50;;
47401;SDS011;33155;48.370;-3.750;2022-08-03T15:32:36;0.85;;;0.80;;
47401;SDS011;33155;48.370;-3.750;2022-08-03T15:35:02;1.27;;;0.50;;
47401;SDS011;33155;48.370;-3.750;2022-08-03T15:37:27;0.60;;;0.50;;
47401;SDS011;33155;48.370;-3.750;2022-08-03T15:39:53;0.30;;;0.30;;
47401;SDS011;33155;48.370;-3.750;2022-08-03T15:42:19;0.60;;;0.40;;
47401;SDS011;33155;48.370;-3.750;2022-08-03T15:44:44;0.40;;;0.30;;
47401;SDS011;33155;48.370;-3.750;2022-08-03T15:47:10;0.32;;;0.30;;
47401;SDS011;33155;48.370;-3.750;2022-08-03T15:49:35;0.63;;;0.40;;
47401;SDS011;33155;48.370;-3.750;2022-08-03T15:52:02;0.52;;;0.50;;
47401;SDS011;33155;48.370;-3.750;2022-08-03T15:54:28;0.50;;;0.40;;
47401;SDS011;33155;48.370;-3.750;2022-08-03T15:56:54;0.32;;;0.20;;
47401;SDS011;33155;48.370;-3.750;2022-08-03T15:59:19;0.75;;;0.43;;
47401;SDS011;33155;48.370;-3.750;2022-08-03T16:01:45;0.35;;;0.25;;
47401;SDS011;33155;48.370;-3.750;2022-08-03T16:04:12;0.50;;;0.30;;
47401;SDS011;33155;48.370;-3.750;2022-08-03T16:06:38;0.40;;;0.40;;
47401;SDS011;33155;48.370;-3.750;2022-08-03T16:09:04;1.45;;;0.40;;
47401;SDS011;33155;48.370;-3.750;2022-08-03T16:11:30;0.50;;;0.40;;
47401;SDS011;33155;48.370;-3.750;2022-08-03T16:13:56;0.70;;;0.30;;
47401;SDS011;33155;48.370;-3.750;2022-08-03T16:16:23;0.57;;;0.40;;
47401;SDS011;33155;48.370;-3.750;2022-08-03T16:18:49;0.52;;;0.30;;
47401;SDS011;33155;48.370;-3.750;2022-08-03T16:21:14;0.60;;;0.40;;
47401;SDS011;33155;48.370;-3.750;2022-08-03T16:23:40;0.30;;;0.22;;
47401;SDS011;33155;48.370;-3.750;2022-08-03T16:26:06;0.80;;;0.22;;
47401;SDS011;33155;48.370;-3.750;2022-08-03T16:28:31;1.08;;;0.38;;
47401;SDS011;33155;48.370;-3.750;2022-08-03T16:30:58;0.65;;;0.30;;
47401;SDS011;33155;48.370;-3.750;2022-08-03T16:33:24;0.10;;;0.10;;
47401;SDS011;33155;48.370;-3.750;2022-08-03T16:35:49;0.30;;;0.30;;
47401;SDS011;33155;48.370;-3.750;2022-08-03T16:38:15;0.30;;;0.28;;
47401;SDS011;33155;48.370;-3.750;2022-08-03T16:40:41;0.30;;;0.30;;
47401;SDS011;33155;48.370;-3.750;2022-08-03T16:43:10;0.63;;;0.25;;
47401;SDS011;33155;48.370;-3.750;2022-08-03T16:45:36;0.73;;;0.20;;
47401;SDS011;33155;48.370;-3.750;2022-08-03T16:48:02;0.85;;;0.40;;
47401;SDS011;33155;48.370;-3.750;2022-08-03T16:50:28;0.20;;;0.20;;
47401;SDS011;33155;48.370;-3.750;2022-08-03T16:52:53;0.85;;;0.30;;
47401;SDS011;33155;48.370;-3.750;2022-08-03T16:55:18;0.20;;;0.20;;
47401;SDS011;33155;48.370;-3.750;2022-08-03T16:57:44;0.32;;;0.20;;
47401;SDS011;33155;48.370;-3.750;2022-08-03T17:00:10;0.68;;;0.20;;
47401;SDS011;33155;48.370;-3.750;2022-08-03T17:02:36;0.25;;;0.25;;
47401;SDS011;33155;48.370;-3.750;2022-08-03T17:05:02;0.38;;;0.35;;
47401;SDS011;33155;48.370;-3.750;2022-08-03T17:07:28;0.35;;;0.15;;
47401;SDS011;33155;48.370;-3.750;2022-08-03T17:09:54;0.30;;;0.30;;
47401;SDS011;33155;48.370;-3.750;2022-08-03T17:12:19;0.30;;;0.30;;
47401;SDS011;33155;48.370;-3.750;2022-08-03T17:14:45;0.98;;;0.65;;
47401;SDS011;33155;48.370;-3.750;2022-08-03T17:17:15;0.30;;;0.30;;
47401;SDS011;33155;48.370;-3.750;2022-08-03T17:19:52;0.30;;;0.20;;
47401;SDS011;33155;48.370;-3.750;2022-08-03T17:22:19;0.40;;;0.40;;
47401;SDS011;33155;48.370;-3.750;2022-08-03T17:24:46;0.73;;;0.50;;
47401;SDS011;33155;48.370;-3.750;2022-08-03T17:27:18;0.30;;;0.30;;
47401;SDS011;33155;48.370;-3.750;2022-08-03T17:29:47;0.82;;;0.45;;
47401;SDS011;33155;48.370;-3.750;2022-08-03T17:32:16;0.40;;;0.30;;
47401;SDS011;33155;48.370;-3.750;2022-08-03T17:34:42;0.50;;;0.50;;
47401;SDS011;33155;48.370;-3.750;2022-08-03T17:37:09;0.55;;;0.30;;
47401;SDS011;33155;48.370;-3.750;2022-08-03T17:39:36;0.50;;;0.50;;
47401;SDS011;33155;48.370;-3.750;2022-08-03T17:42:03;0.32;;;0.32;;
47401;SDS011;33155;48.370;-3.750;2022-08-03T17:44:32;0.52;;;0.50;;
47401;SDS011;33155;48.370;-3.750;2022-08-03T17:46:58;1.60;;;0.40;;
47401;SDS011;33155;48.370;-3.750;2022-08-03T17:49:24;0.30;;;0.30;;
47401;SDS011;33155;48.370;-3.750;2022-08-03T17:51:55;1.00;;;0.60;;
47401;SDS011;33155;48.370;-3.750;2022-08-03T17:54:23;0.45;;;0.40;;
47401;SDS011;33155;48.370;-3.750;2022-08-03T18:02:53;1.73;;;0.50;;
47401;SDS011;33155;48.370;-3.750;2022-08-03T18:05:51;0.55;;;0.32;;
47401;SDS011;33155;48.370;-3.750;2022-08-03T18:08:28;0.40;;;0.40;;
47401;SDS011;33155;48.370;-3.750;2022-08-03T18:13:37;0.50;;;0.50;;
47401;SDS011;33155;48.370;-3.750;2022-08-03T18:17:01;0.40;;;0.40;;
47401;SDS011;33155;48.370;-3.750;2022-08-03T18:19:26;0.82;;;0.60;;
47401;SDS011;33155;48.370;-3.750;2022-08-03T18:21:53;0.50;;;0.38;;
47401;SDS011;33155;48.370;-3.750;2022-08-03T18:24:19;0.40;;;0.40;;
47401;SDS011;33155;48.370;-3.750;2022-08-03T18:26:48;0.40;;;0.40;;
47401;SDS011;33155;48.370;-3.750;2022-08-03T18:29:14;0.60;;;0.60;;
47401;SDS011;33155;48.370;-3.750;2022-08-03T18:31:39;0.38;;;0.30;;
47401;SDS011;33155;48.370;-3.750;2022-08-03T18:34:07;0.77;;;0.50;;
47401;SDS011;33155;48.370;-3.750;2022-08-03T18:36:32;0.43;;;0.43;;
47401;SDS011;33155;48.370;-3.750;2022-08-03T18:39:01;0.40;;;0.40;;
47401;SDS011;33155;48.370;-3.750;2022-08-03T18:41:32;0.73;;;0.40;;
47401;SDS011;33155;48.370;-3.750;2022-08-03T18:43:58;0.52;;;0.52;;
47401;SDS011;33155;48.370;-3.750;2022-08-03T18:46:34;0.50;;;0.50;;
47401;SDS011;33155;48.370;-3.750;2022-08-03T18:51:55;0.40;;;0.40;;
47401;SDS011;33155;48.370;-3.750;2022-08-03T18:54:28;0.35;;;0.35;;
47401;SDS011;33155;48.370;-3.750;2022-08-03T18:57:01;0.40;;;0.40;;
47401;SDS011;33155;48.370;-3.750;2022-08-03T18:59:29;0.85;;;0.25;;
47401;SDS011;33155;48.370;-3.750;2022-08-03T19:02:26;0.30;;;0.30;;
47401;SDS011;33155;48.370;-3.750;2022-08-03T19:05:05;0.43;;;0.30;;
47401;SDS011;33155;48.370;-3.750;2022-08-03T19:07:32;0.60;;;0.60;;
47401;SDS011;33155;48.370;-3.750;2022-08-03T19:09:59;0.50;;;0.40;;
47401;SDS011;33155;48.370;-3.750;2022-08-03T19:12:33;0.40;;;0.40;;
47401;SDS011;33155;48.370;-3.750;2022-08-03T19:15:04;0.57;;;0.30;;
47401;SDS011;33155;48.370;-3.750;2022-08-03T19:17:32;0.57;;;0.40;;
47401;SDS011;33155;48.370;-3.750;2022-08-03T19:20:00;0.52;;;0.52;;
47401;SDS011;33155;48.370;-3.750;2022-08-03T19:22:28;0.90;;;0.45;;
47401;SDS011;33155;48.370;-3.750;2022-08-03T19:24:55;0.40;;;0.40;;
47401;SDS011;33155;48.370;-3.750;2022-08-03T19:27:24;0.40;;;0.40;;
47401;SDS011;33155;48.370;-3.750;2022-08-03T19:29:50;0.55;;;0.43;;
47401;SDS011;33155;48.370;-3.750;2022-08-03T19:32:16;0.60;;;0.60;;
47401;SDS011;33155;48.370;-3.750;2022-08-03T19:34:45;0.50;;;0.50;;
47401;SDS011;33155;48.370;-3.750;2022-08-03T19:37:12;0.63;;;0.63;;
47401;SDS011;33155;48.370;-3.750;2022-08-03T19:39:39;0.60;;;0.60;;
47401;SDS011;33155;48.370;-3.750;2022-08-03T19:42:06;0.43;;;0.40;;
47401;SDS011;33155;48.370;-3.750;2022-08-03T19:44:35;0.60;;;0.60;;
47401;SDS011;33155;48.370;-3.750;2022-08-03T19:47:05;0.70;;;0.60;;
47401;SDS011;33155;48.370;-3.750;2022-08-03T19:49:39;0.57;;;0.57;;
47401;SDS011;33155;48.370;-3.750;2022-08-03T19:52:05;0.80;;;0.70;;
47401;SDS011;33155;48.370;-3.750;2022-08-03T19:54:38;0.98;;;0.70;;
47401;SDS011;33155;48.370;-3.750;2022-08-03T19:57:05;1.17;;;0.90;;
47401;SDS011;33155;48.370;-3.750;2022-08-03T19:59:35;1.58;;;1.15;;
